WA0GMH-1 Weather Reports


time (UTC)temp
F
wind
direction
speed
knots
gust
knots
rain 1hr
in
rain 24hr
in
rain mn
in
humidity
%
barometer
mb
20260504151045 61 270 0.0 0.0 0.00 0.00 0.00 80 1004.1
20260504150402 61 270 0.0 0.0 0.00 0.00 0.00 1 1004.2
20260504141024 59 270 0.0 0.0 0.00 0.00 0.00 24 1003.4
20260504140342 58 270 0.0 0.0 0.00 0.00 0.00 25 1003.2
20260504130322 56 270 0.0 0.0 0.00 0.00 0.00 28 1002.6
20260504120302 51 270 0.0 0.0 0.00 0.00 0.00 26 1001.5
20260504110241 52 270 0.0 0.0 0.00 0.00 0.00 17 1001.9
20260504100221 53 270 0.0 0.0 0.00 0.00 0.00 14 1002.6
20260504081501 53 270 0.0 0.0 0.00 0.00 0.00 10 1003.3
20260504080818 53 270 0.0 0.0 0.00 0.00 0.00 10 1003.4
20260504080136 53 270 0.0 0.0 0.00 0.00 0.00 10 1003.6
20260504070115 55 270 0.0 0.0 0.00 0.00 0.00 5 1004.1
20260504050718 57 270 0.0 0.0 0.00 0.00 0.00 100 1005.5
20260504045353 58 270 0.0 0.0 0.00 0.00 0.00 85 1005.6
20260504044711 58 270 0.0 0.0 0.00 0.00 0.00 85 1005.7
20260504044029 58 270 0.0 0.0 0.00 0.00 0.00 84 1005.9
20260504043346 58 270 0.0 0.0 0.00 0.00 0.00 83 1006.1
20260504042704 59 270 0.0 0.0 0.00 0.00 0.00 83 1006.2
20260504042022 59 270 0.0 0.0 0.00 0.00 0.00 82 1006.3
20260504041340 60 270 0.0 0.0 0.00 0.00 0.00 81 1006.4
20260504040657 60 270 0.0 0.0 0.00 0.00 0.00 80 1006.4
20260504040015 60 270 0.0 0.0 0.00 0.00 0.00 79 1006.4
20260504035333 61 270 0.0 0.0 0.00 0.00 0.00 79 1006.5
20260504034651 61 270 0.0 0.0 0.00 0.00 0.00 78 1006.6
20260504034008 62 270 0.0 0.0 0.00 0.00 0.00 77 1006.8
20260504033326 62 270 0.0 0.0 0.00 0.00 0.00 76 1006.8
20260504032644 62 270 0.0 0.0 0.00 0.00 0.00 76 1006.9
20260504032002 62 270 0.0 0.0 0.00 0.00 0.00 76 1007.0
20260504031319 63 270 0.0 0.0 0.00 0.00 0.00 75 1007.0
20260504030637 63 270 0.0 0.0 0.00 0.00 0.00 75 1007.0
20260504025955 63 270 0.0 0.0 0.00 0.00 0.00 75 1007.0
20260504025313 63 270 0.0 0.0 0.00 0.00 0.00 75 1007.1
20260504024630 64 270 0.0 0.0 0.00 0.00 0.00 75 1007.0
20260504023949 64 270 0.0 0.0 0.00 0.00 0.00 75 1007.3
20260504023306 65 270 0.0 0.0 0.00 0.00 0.00 73 1007.3
20260504022624 65 270 0.0 0.0 0.00 0.00 0.00 73 1007.3
20260504021941 65 270 0.0 0.0 0.00 0.00 0.00 72 1007.3
20260504021300 66 270 0.0 0.0 0.00 0.00 0.00 72 1007.2
20260504020617 67 270 0.0 0.0 0.00 0.00 0.00 72 1007.4
20260504015935 67 270 0.0 0.0 0.00 0.00 0.00 71 1007.3
20260504015252 68 270 0.0 0.0 0.00 0.00 0.00 70 1007.4
20260504014610 69 270 0.0 0.0 0.00 0.00 0.00 70 1007.3
20260504013928 69 270 0.0 0.0 0.00 0.00 0.00 70 1007.4
20260504013246 70 270 0.0 0.0 0.00 0.00 0.00 70 1007.4
20260504012603 70 270 0.0 0.0 0.00 0.00 0.00 70 1007.5
20260504011922 71 270 0.0 0.0 0.00 0.00 0.00 70 1007.6
20260504011239 72 270 0.0 0.0 0.00 0.00 0.00 69 1007.6
20260504010557 72 270 0.0 0.0 0.00 0.00 0.00 68 1007.7
20260504005914 73 270 0.0 0.0 0.00 0.00 0.00 67 1007.7
20260504005233 74 270 0.0 0.0 0.00 0.00 0.00 66 1007.7
20260504004550 74 270 0.0 0.0 0.00 0.00 0.00 66 1007.9
20260504003908 75 270 0.0 0.0 0.00 0.00 0.00 65 1008.2
20260504003225 75 270 0.0 0.0 0.00 0.00 0.00 65 1008.1
20260504002544 76 270 0.0 0.0 0.00 0.00 0.00 63 1008.2
20260504001219 77 270 0.0 0.0 0.00 0.00 0.00 62 1008.4
20260504000536 78 270 0.0 0.0 0.00 0.00 0.00 61 1008.3
20260503235855 79 270 0.0 0.0 0.00 0.00 0.00 61 1008.4
20260503235212 79 270 0.0 0.0 0.00 0.00 0.00 60 1008.4
20260503234530 81 270 0.0 0.0 0.00 0.00 0.00 61 1008.6
20260503233847 81 270 0.0 0.0 0.00 0.00 0.00 61 1008.6
20260503233206 81 270 0.0 0.0 0.00 0.00 0.00 62 1008.6
20260503232523 81 270 0.0 0.0 0.00 0.00 0.00 63 1008.9
20260503231841 81 270 0.0 0.0 0.00 0.00 0.00 63 1008.7
20260503231158 81 270 0.0 0.0 0.00 0.00 0.00 63 1008.7
20260503230517 80 270 0.0 0.0 0.00 0.00 0.00 63 1008.7
20260503225834 80 270 0.0 0.0 0.00 0.00 0.00 62 1008.8
20260503225152 80 270 0.0 0.0 0.00 0.00 0.00 65 1008.8
20260503224510 80 270 0.0 0.0 0.00 0.00 0.00 64 1008.9
20260503223828 80 270 0.0 0.0 0.00 0.00 0.00 62 1008.8
20260503223145 80 270 0.0 0.0 0.00 0.00 0.00 62 1009.0
20260503222503 80 270 0.0 0.0 0.00 0.00 0.00 62 1008.9
20260503221821 80 270 0.0 0.0 0.00 0.00 0.00 63 1009.1
20260503221139 80 270 0.0 0.0 0.00 0.00 0.00 64 1009.1
20260503220456 80 270 0.0 0.0 0.00 0.00 0.00 63 1009.4
20260503215814 79 270 0.0 0.0 0.00 0.00 0.00 66 1009.3
20260503215131 79 270 0.0 0.0 0.00 0.00 0.00 67 1009.2
20260503214450 79 270 0.0 0.0 0.00 0.00 0.00 67 1009.4
20260503213807 78 270 0.0 0.0 0.00 0.00 0.00 67 1009.5
20260503213125 79 270 0.0 0.0 0.00 0.00 0.00 66 1009.8
20260503212443 79 270 0.0 0.0 0.00 0.00 0.00 66 1009.7
20260503211801 79 270 0.0 0.0 0.00 0.00 0.00 66 1009.8
20260503210436 77 270 0.0 0.0 0.00 0.00 0.00 67 1009.9
20260503205754 77 270 0.0 0.0 0.00 0.00 0.00 68 1010.2
20260503205112 77 270 0.0 0.0 0.00 0.00 0.00 66 1010.4
20260503204429 77 270 0.0 0.0 0.00 0.00 0.00 68 1010.5
20260503203747 77 270 0.0 0.0 0.00 0.00 0.00 68 1010.6
20260503203105 76 270 0.0 0.0 0.00 0.00 0.00 70 1010.7
20260503202423 76 270 0.0 0.0 0.00 0.00 0.00 70 1010.6
20260503201740 75 270 0.0 0.0 0.00 0.00 0.00 69 1010.6
20260503201058 75 270 0.0 0.0 0.00 0.00 0.00 70 1010.7
20260503200416 75 270 0.0 0.0 0.00 0.00 0.00 70 1010.8
20260503195734 74 270 0.0 0.0 0.00 0.00 0.00 70 1011.0
20260503195051 74 270 0.0 0.0 0.00 0.00 0.00 70 1011.1
20260503194409 74 270 0.0 0.0 0.00 0.00 0.00 71 1011.0
20260503193727 74 270 0.0 0.0 0.00 0.00 0.00 70 1011.2
20260503193045 74 270 0.0 0.0 0.00 0.00 0.00 70 1011.2
20260503192402 74 270 0.0 0.0 0.00 0.00 0.00 70 1011.4
20260503191720 74 270 0.0 0.0 0.00 0.00 0.00 72 1011.4
20260503191038 73 270 0.0 0.0 0.00 0.00 0.00 72 1011.5
20260503190356 73 270 0.0 0.0 0.00 0.00 0.00 72 1011.6
20260503185713 73 270 0.0 0.0 0.00 0.00 0.00 72 1011.7
20260503185031 73 270 0.0 0.0 0.00 0.00 0.00 75 1011.9
20260503184349 72 270 0.0 0.0 0.00 0.00 0.00 73 1012.1
20260503183707 72 270 0.0 0.0 0.00 0.00 0.00 75 1011.8
20260503183024 72 270 0.0 0.0 0.00 0.00 0.00 78 1011.9
20260503182343 71 270 0.0 0.0 0.00 0.00 0.00 79 1012.1
20260503181700 70 270 0.0 0.0 0.00 0.00 0.00 78 1012.1
20260503181018 70 270 0.0 0.0 0.00 0.00 0.00 79 1012.3
20260503180335 70 270 0.0 0.0 0.00 0.00 0.00 80 1012.3
20260503175654 69 270 0.0 0.0 0.00 0.00 0.00 79 1012.5
20260503175011 69 270 0.0 0.0 0.00 0.00 0.00 81 1012.6
20260503174329 69 270 0.0 0.0 0.00 0.00 0.00 80 1012.6
20260503173646 69 270 0.0 0.0 0.00 0.00 0.00 82 1012.6
20260503173005 69 270 0.0 0.0 0.00 0.00 0.00 83 1012.7
20260503172322 68 270 0.0 0.0 0.00 0.00 0.00 82 1012.8
20260503171640 68 270 0.0 0.0 0.00 0.00 0.00 84 1013.1
20260503170957 67 270 0.0 0.0 0.00 0.00 0.00 84 1012.8
20260503170316 67 270 0.0 0.0 0.00 0.00 0.00 85 1012.8